createdAt,value
2023-01-10T00:01:31.041Z,92675.00
2023-01-10T00:03:58.619Z,92659.75
2023-01-10T00:06:26.012Z,92663.91
2023-01-10T00:08:53.245Z,92648.03
2023-01-10T00:11:39.511Z,92637.72
2023-01-10T00:14:06.773Z,92625.00
2023-01-10T00:16:34.666Z,92641.28
2023-01-10T00:19:01.990Z,92628.78
2023-01-10T00:21:31.279Z,92637.50
2023-01-10T00:24:13.787Z,92640.91
2023-01-10T00:26:41.534Z,92639.69
2023-01-10T00:29:09.903Z,92626.38
2023-01-10T00:31:37.110Z,92627.19
2023-01-10T00:34:04.328Z,92641.28
2023-01-10T00:36:31.900Z,92629.56
2023-01-10T00:38:59.127Z,92634.31
2023-01-10T00:41:52.573Z,92623.41
2023-01-10T00:44:20.213Z,92621.03
2023-01-10T00:46:47.438Z,92623.00
2023-01-10T00:49:16.465Z,92611.91
2023-01-10T00:51:44.172Z,92621.63
2023-01-10T00:54:12.925Z,92614.66
2023-01-10T00:56:40.496Z,92606.75
2023-01-10T00:59:08.714Z,92587.91
2023-01-10T01:01:37.122Z,92593.03
2023-01-10T01:04:04.705Z,92578.78
2023-01-10T01:06:32.366Z,92582.34
2023-01-10T01:08:59.544Z,92583.53
2023-01-10T01:11:26.960Z,92588.50
2023-01-10T01:13:54.546Z,92593.25
2023-01-10T01:16:22.604Z,92612.47
2023-01-10T01:18:49.901Z,92618.03
2023-01-10T01:21:17.413Z,92586.28
2023-01-10T01:23:44.703Z,92573.78
2023-01-10T01:26:12.004Z,92560.09
2023-01-10T01:28:39.625Z,92557.31
2023-01-10T01:31:10.953Z,92557.34
2023-01-10T01:33:38.446Z,92567.84
2023-01-10T01:36:13.622Z,92588.50
2023-01-10T01:38:41.654Z,92593.47
2023-01-10T01:41:29.595Z,92592.25
2023-01-10T01:44:11.106Z,92589.06
2023-01-10T01:46:40.336Z,92584.25
2023-01-10T01:49:19.918Z,92567.56
2023-01-10T01:51:51.943Z,92569.16
2023-01-10T01:54:19.657Z,92566.75
2023-01-10T01:56:53.901Z,92551.69
2023-01-10T01:59:31.963Z,92560.22
2023-01-10T02:02:04.345Z,92567.19
2023-01-10T02:04:42.537Z,92565.16
2023-01-10T02:07:11.588Z,92573.12
2023-01-10T02:09:54.283Z,92542.09
2023-01-10T02:12:21.891Z,92538.31
2023-01-10T02:14:51.627Z,92537.31
2023-01-10T02:17:19.095Z,92527.00
2023-01-10T02:20:07.406Z,92528.38
2023-01-10T02:22:53.622Z,92527.59
2023-01-10T02:25:51.340Z,92529.94
2023-01-10T02:28:50.233Z,92536.94
2023-01-10T02:31:40.050Z,92519.31
2023-01-10T02:34:30.829Z,92513.75
2023-01-10T02:37:17.631Z,92512.66
2023-01-10T02:40:03.227Z,92518.97
2023-01-10T02:42:42.864Z,92521.00
2023-01-10T02:45:16.945Z,92501.16
2023-01-10T02:47:44.549Z,92495.19
2023-01-10T02:50:33.901Z,92490.38
2023-01-10T02:53:08.417Z,92487.72
2023-01-10T02:55:57.477Z,92497.75
2023-01-10T02:58:45.748Z,92500.28
2023-01-10T03:01:18.987Z,92476.22
2023-01-10T03:04:19.465Z,92469.47
2023-01-10T03:06:52.796Z,92491.28
2023-01-10T03:09:31.551Z,92511.72
2023-01-10T03:12:15.937Z,92495.19
2023-01-10T03:14:46.644Z,92483.28
2023-01-10T03:17:16.112Z,92473.78
2023-01-10T03:19:51.441Z,92475.03
2023-01-10T03:22:18.928Z,92477.59
2023-01-10T03:24:49.956Z,92484.16
2023-01-10T03:27:52.781Z,92469.03
2023-01-10T03:30:39.526Z,92466.44
2023-01-10T03:33:07.198Z,92470.63
2023-01-10T03:36:09.366Z,92479.19
2023-01-10T03:38:46.605Z,92482.97
2023-01-10T03:41:22.979Z,92476.34
2023-01-10T03:44:38.102Z,92481.72
2023-01-10T03:47:28.255Z,92481.13
2023-01-10T03:49:57.941Z,92493.87
2023-01-10T03:52:26.587Z,92479.94
2023-01-10T03:54:54.271Z,92469.78
2023-01-10T03:57:23.990Z,92477.16
2023-01-10T03:59:59.105Z,92477.13
2023-01-10T04:02:32.213Z,92477.66
2023-01-10T04:05:00.066Z,92465.34
2023-01-10T04:07:27.889Z,92462.34
2023-01-10T04:09:55.322Z,92442.13
2023-01-10T04:12:23.008Z,92425.09
2023-01-10T04:14:50.516Z,92410.44
2023-01-10T04:17:18.356Z,92401.28
2023-01-10T04:19:46.252Z,92403.06
2023-01-10T04:22:13.595Z,92404.00
2023-01-10T04:24:41.329Z,92417.53
2023-01-10T04:27:09.004Z,92418.28
2023-01-10T04:29:36.397Z,92421.41
2023-01-10T04:32:03.818Z,92416.47
2023-01-10T04:34:31.566Z,92427.13
2023-01-10T04:36:58.954Z,92451.62
2023-01-10T04:39:26.457Z,92481.00
2023-01-10T04:41:54.227Z,92487.50
2023-01-10T04:44:21.572Z,92487.72
2023-01-10T04:46:48.871Z,92492.22
2023-01-10T04:49:16.521Z,92505.00
2023-01-10T04:51:43.866Z,92515.34
2023-01-10T04:54:11.220Z,92515.38
2023-01-10T04:56:38.888Z,92510.22
2023-01-10T04:59:06.836Z,92502.31
2023-01-10T05:01:36.529Z,92493.69
2023-01-10T05:04:04.490Z,92478.56
2023-01-10T05:06:32.214Z,92462.34
2023-01-10T05:08:59.495Z,92444.44
2023-01-10T05:11:27.364Z,92427.34
2023-01-10T05:13:54.748Z,92434.91
2023-01-10T05:16:22.405Z,92435.19
2023-01-10T05:18:50.963Z,92429.16
2023-01-10T05:21:18.685Z,92414.44
2023-01-10T05:23:46.143Z,92391.63
2023-01-10T05:26:20.550Z,92392.25
2023-01-10T05:28:48.060Z,92390.81
2023-01-10T05:31:18.081Z,92397.66
2023-01-10T05:33:51.166Z,92405.75
2023-01-10T05:36:19.698Z,92406.31
2023-01-10T05:38:47.131Z,92431.53
2023-01-10T05:41:14.688Z,92432.37
2023-01-10T05:43:42.439Z,92445.19
2023-01-10T05:46:10.053Z,92446.97
2023-01-10T05:48:38.013Z,92452.38
2023-01-10T05:51:06.073Z,92449.56
2023-01-10T05:53:33.545Z,92436.66
2023-01-10T05:56:02.535Z,92437.53
2023-01-10T05:58:30.277Z,92439.28
2023-01-10T06:00:58.477Z,92442.94
2023-01-10T06:03:26.885Z,92439.25
2023-01-10T06:05:55.884Z,92435.28
2023-01-10T06:08:24.335Z,92442.59
2023-01-10T06:10:52.337Z,92442.81
2023-01-10T06:13:19.759Z,92445.19
2023-01-10T06:15:47.549Z,92448.59
2023-01-10T06:18:15.594Z,92450.81
2023-01-10T06:20:43.795Z,92441.59
2023-01-10T06:23:11.442Z,92437.53
2023-01-10T06:25:41.834Z,92438.81
2023-01-10T06:28:10.926Z,92432.50
2023-01-10T06:30:39.070Z,92438.09
2023-01-10T06:33:08.971Z,92443.56
2023-01-10T06:35:37.241Z,92442.56
2023-01-10T06:38:05.674Z,92448.88
2023-01-10T06:40:33.066Z,92456.91
2023-01-10T06:43:00.554Z,92459.28
2023-01-10T06:45:28.292Z,92450.25
2023-01-10T06:47:55.671Z,92449.88
2023-01-10T06:50:23.087Z,92441.78
2023-01-10T06:52:59.622Z,92442.50
2023-01-10T06:55:27.645Z,92450.75
2023-01-10T06:57:57.736Z,92437.34
2023-01-10T07:00:27.586Z,92447.97
2023-01-10T07:02:58.454Z,92454.44
2023-01-10T07:05:25.817Z,92454.78
2023-01-10T07:07:53.185Z,92449.50
2023-01-10T07:10:20.885Z,92461.84
2023-01-10T07:12:48.206Z,92451.75
2023-01-10T07:15:15.708Z,92450.81
2023-01-10T07:17:43.402Z,92455.06
2023-01-10T07:20:11.416Z,92459.06
2023-01-10T07:22:38.810Z,92451.44
2023-01-10T07:25:07.030Z,92446.63
2023-01-10T07:27:35.024Z,92452.91
2023-01-10T07:30:02.578Z,92438.91
2023-01-10T07:32:30.292Z,92440.13
2023-01-10T07:34:57.676Z,92424.37
2023-01-10T07:41:48.117Z,92431.03
2023-01-10T07:44:16.803Z,92431.03
2023-01-10T07:46:44.182Z,92422.84
2023-01-10T07:49:11.702Z,92409.19
2023-01-10T07:51:39.318Z,92417.72
2023-01-10T07:54:06.702Z,92420.41
2023-01-10T07:56:34.245Z,92419.31
2023-01-10T07:59:01.913Z,92414.34
2023-01-10T08:01:30.619Z,92417.28
2023-01-10T08:03:58.963Z,92406.91
2023-01-10T08:06:26.300Z,92394.25
2023-01-10T08:08:53.613Z,92403.03
2023-01-10T08:11:21.296Z,92383.59
2023-01-10T08:13:49.005Z,92375.66
2023-01-10T08:16:16.402Z,92369.41
2023-01-10T08:18:44.241Z,92365.22
2023-01-10T08:21:11.658Z,92369.91
2023-01-10T08:23:38.998Z,92366.69
2023-01-10T08:26:07.321Z,92361.38
2023-01-10T08:28:34.659Z,92351.19
2023-01-10T08:31:07.104Z,92358.09
2023-01-10T08:33:35.409Z,92357.88
2023-01-10T08:36:02.824Z,92351.25
2023-01-10T08:38:30.253Z,92349.34
2023-01-10T08:40:58.747Z,92353.78
2023-01-10T08:43:26.055Z,92339.28
2023-01-10T08:45:53.440Z,92331.88
2023-01-10T08:48:21.438Z,92333.47
2023-01-10T08:50:48.959Z,92327.25
2023-01-10T08:53:16.355Z,92327.78
2023-01-10T08:55:48.803Z,92322.03
2023-01-10T08:58:16.488Z,92314.41
2023-01-10T09:00:45.335Z,92316.63
2023-01-10T09:03:13.082Z,92316.47
2023-01-10T09:05:41.149Z,92318.72
2023-01-10T09:08:08.574Z,92324.16
2023-01-10T09:10:36.466Z,92317.00
2023-01-10T09:13:05.166Z,92310.66
2023-01-10T09:15:35.063Z,92307.47
2023-01-10T09:18:05.696Z,92303.06
2023-01-10T09:20:36.853Z,92307.94
2023-01-10T09:23:11.688Z,92300.22
2023-01-10T09:25:39.086Z,92291.56
2023-01-10T09:28:07.097Z,92292.81
2023-01-10T09:30:34.903Z,92292.59
2023-01-10T09:33:02.803Z,92278.75
2023-01-10T09:35:31.695Z,92278.66
2023-01-10T09:38:01.626Z,92273.50
2023-01-10T09:40:47.705Z,92273.81
2023-01-10T09:43:35.613Z,92273.37
2023-01-10T09:46:23.967Z,92263.16
2023-01-10T09:49:16.606Z,92260.19
2023-01-10T09:51:51.185Z,92265.41
2023-01-10T09:54:32.550Z,92260.47
2023-01-10T09:57:01.570Z,92259.56
2023-01-10T09:59:40.091Z,92253.78
2023-01-10T10:02:14.806Z,92256.38
2023-01-10T10:04:42.711Z,92250.88
2023-01-10T10:07:14.714Z,92249.84
2023-01-10T10:09:43.629Z,92237.47
2023-01-10T10:12:41.813Z,92235.00
2023-01-10T10:15:09.678Z,92231.25
2023-01-10T10:18:07.068Z,92242.75
2023-01-10T10:20:58.008Z,92233.25
2023-01-10T10:24:07.574Z,92224.03
2023-01-10T10:26:40.715Z,92239.63
2023-01-10T10:29:26.292Z,92226.28
2023-01-10T10:32:05.996Z,92224.84
2023-01-10T10:34:46.201Z,92220.78
2023-01-10T10:37:21.915Z,92216.78
2023-01-10T10:39:55.284Z,92212.78
2023-01-10T10:42:27.319Z,92219.19
2023-01-10T10:45:02.726Z,92216.16
2023-01-10T10:47:36.919Z,92213.34
2023-01-10T10:50:16.622Z,92209.16
2023-01-10T10:52:46.025Z,92207.47
2023-01-10T10:55:19.356Z,92204.97
2023-01-10T10:57:59.574Z,92201.28
2023-01-10T11:00:29.802Z,92198.31
2023-01-10T11:03:11.087Z,92189.31
2023-01-10T11:05:46.640Z,92183.25
2023-01-10T11:08:17.588Z,92181.72
2023-01-10T11:10:49.042Z,92182.31
2023-01-10T11:13:34.889Z,92177.03
2023-01-10T11:16:04.757Z,92184.47
2023-01-10T11:18:34.056Z,92184.91
2023-01-10T11:21:01.595Z,92184.38
2023-01-10T11:23:41.237Z,92188.41
2023-01-10T11:26:31.199Z,92190.56
2023-01-10T11:29:18.868Z,92186.72
2023-01-10T11:31:48.819Z,92188.06
2023-01-10T11:34:24.779Z,92183.41
2023-01-10T11:37:25.156Z,92182.22
2023-01-10T11:40:24.276Z,92180.53
2023-01-10T11:42:59.126Z,92175.34
2023-01-10T11:45:33.108Z,92180.87
2023-01-10T11:48:34.204Z,92180.81
2023-01-10T11:51:19.416Z,92178.81
2023-01-10T11:53:49.140Z,92171.84
2023-01-10T11:56:29.035Z,92173.63
2023-01-10T11:58:59.978Z,92171.28
2023-01-10T12:01:43.468Z,92158.87
2023-01-10T12:04:21.276Z,92166.06
2023-01-10T12:06:55.016Z,92159.31
2023-01-10T12:09:36.065Z,92154.84
2023-01-10T12:12:28.460Z,92157.94
2023-01-10T12:14:59.132Z,92153.44
2023-01-10T12:17:40.094Z,92155.22
2023-01-10T12:20:14.361Z,92161.16
2023-01-10T12:22:46.124Z,92156.72
2023-01-10T12:25:41.350Z,92158.13
2023-01-10T12:28:30.296Z,92158.00
2023-01-10T12:30:59.664Z,92159.97
2023-01-10T12:33:33.199Z,92153.00
2023-01-10T12:36:14.431Z,92138.09
2023-01-10T12:39:04.406Z,92136.13
2023-01-10T12:42:03.692Z,92128.75
2023-01-10T12:44:39.806Z,92129.78
2023-01-10T12:47:28.143Z,92137.81
2023-01-10T12:49:57.673Z,92142.66
2023-01-10T12:52:25.338Z,92143.84
2023-01-10T12:54:52.853Z,92140.47
2023-01-10T12:57:32.042Z,92142.03
2023-01-10T13:00:04.269Z,92147.50
2023-01-10T13:02:44.287Z,92156.75
2023-01-10T13:05:21.783Z,92151.66
2023-01-10T13:07:51.948Z,92151.19
2023-01-10T13:10:23.255Z,92152.13
2023-01-10T13:12:57.827Z,92153.84
2023-01-10T13:15:32.585Z,92161.38
2023-01-10T13:18:15.850Z,92169.00
2023-01-10T13:20:44.458Z,92168.50
2023-01-10T13:23:23.237Z,92162.34
2023-01-10T13:26:01.034Z,92169.69
2023-01-10T13:28:31.037Z,92170.25
2023-01-10T13:31:06.047Z,92169.47
2023-01-10T13:33:56.680Z,92166.91
2023-01-10T13:36:31.770Z,92167.81
2023-01-10T13:39:03.092Z,92171.44
2023-01-10T13:42:17.600Z,92174.88
2023-01-10T13:45:10.163Z,92175.84
2023-01-10T13:47:40.967Z,92182.13
2023-01-10T13:50:23.856Z,92187.31
2023-01-10T13:53:02.453Z,92187.28
2023-01-10T13:55:39.109Z,92188.84
2023-01-10T13:58:09.922Z,92195.41
2023-01-10T14:00:55.837Z,92195.41
2023-01-10T14:03:45.162Z,92194.31
2023-01-10T14:06:18.606Z,92194.06
2023-01-10T14:08:54.963Z,92197.91
2023-01-10T14:11:29.673Z,92190.13
2023-01-10T14:14:01.910Z,92183.59
2023-01-10T14:16:32.568Z,92189.00
2023-01-10T14:19:02.460Z,92198.34
2023-01-10T14:21:31.563Z,92204.25
2023-01-10T14:23:59.339Z,92197.34
2023-01-10T14:26:33.298Z,92191.81
2023-01-10T14:29:08.925Z,92197.44
2023-01-10T14:31:38.919Z,92203.19
2023-01-10T14:34:14.835Z,92190.94
2023-01-10T14:36:55.997Z,92194.56
2023-01-10T14:39:24.040Z,92205.34
2023-01-10T14:41:54.716Z,92208.97
2023-01-10T14:44:46.047Z,92211.78
2023-01-10T14:47:29.605Z,92211.34
2023-01-10T14:50:07.159Z,92212.91
2023-01-10T14:52:34.934Z,92213.00
2023-01-10T14:55:08.184Z,92226.19
2023-01-10T14:57:35.948Z,92224.94
2023-01-10T15:00:17.735Z,92228.88
2023-01-10T15:02:47.855Z,92239.69
2023-01-10T15:05:21.665Z,92240.69
2023-01-10T15:07:49.550Z,92229.75
2023-01-10T15:10:31.606Z,92227.59
2023-01-10T15:13:03.325Z,92226.56
2023-01-10T15:15:34.741Z,92232.44
2023-01-10T15:18:09.008Z,92235.16
2023-01-10T15:20:36.434Z,92237.38
2023-01-10T15:23:04.206Z,92231.78
2023-01-10T15:25:39.480Z,92235.06
2023-01-10T15:28:18.223Z,92239.12
2023-01-10T15:30:46.262Z,92238.34
2023-01-10T15:33:23.765Z,92244.97
2023-01-10T15:35:51.192Z,92254.34
2023-01-10T15:38:24.171Z,92248.13
2023-01-10T15:41:02.908Z,92265.41
2023-01-10T15:43:35.952Z,92267.78
2023-01-10T15:46:06.206Z,92272.63
2023-01-10T15:48:35.099Z,92276.69
2023-01-10T15:51:15.667Z,92268.09
2023-01-10T15:54:13.243Z,92276.56
2023-01-10T15:56:52.448Z,92274.31
2023-01-10T15:59:37.301Z,92281.75
2023-01-10T16:02:27.419Z,92284.44
2023-01-10T16:05:06.522Z,92289.63
2023-01-10T16:07:35.533Z,92292.44
2023-01-10T16:10:08.436Z,92298.03
2023-01-10T16:12:57.301Z,92302.34
2023-01-10T16:15:27.791Z,92308.63
2023-01-10T16:17:55.154Z,92308.22
2023-01-10T16:20:35.671Z,92319.88
2023-01-10T16:23:05.915Z,92325.00
2023-01-10T16:25:39.185Z,92330.88
2023-01-10T16:28:06.951Z,92331.06
2023-01-10T16:30:35.365Z,92335.38
2023-01-10T16:33:11.405Z,92340.34
2023-01-10T16:35:39.606Z,92345.53
2023-01-10T16:38:08.372Z,92341.84
2023-01-10T16:40:38.713Z,92336.97
2023-01-10T16:43:18.575Z,92351.91
2023-01-10T16:45:51.070Z,92351.19
2023-01-10T16:48:20.425Z,92352.38
2023-01-10T16:50:48.768Z,92357.91
2023-01-10T16:53:18.875Z,92361.50
2023-01-10T16:55:52.256Z,92359.38
2023-01-10T16:58:20.852Z,92373.47
2023-01-10T17:00:52.737Z,92376.78
2023-01-10T17:03:23.648Z,92375.19
2023-01-10T17:05:51.973Z,92375.16
2023-01-10T17:08:21.553Z,92375.34
2023-01-10T17:10:53.962Z,92384.91
2023-01-10T17:13:25.342Z,92399.47
2023-01-10T17:15:52.784Z,92399.53
2023-01-10T17:18:20.314Z,92399.88
2023-01-10T17:20:47.922Z,92400.78
2023-01-10T17:23:15.821Z,92400.16
2023-01-10T17:25:43.455Z,92405.47
2023-01-10T17:28:12.246Z,92400.19
2023-01-10T17:30:40.687Z,92391.91
2023-01-10T17:33:11.096Z,92399.41
2023-01-10T17:35:42.824Z,92399.06
2023-01-10T17:38:11.836Z,92409.59
2023-01-10T17:40:40.368Z,92413.62
2023-01-10T17:43:11.247Z,92414.19
2023-01-10T17:45:43.049Z,92416.72
2023-01-10T17:48:13.295Z,92420.81
2023-01-10T17:50:44.106Z,92421.88
2023-01-10T17:53:12.648Z,92411.97
2023-01-10T17:55:50.412Z,92421.69
2023-01-10T17:58:18.818Z,92416.19
2023-01-10T18:00:46.774Z,92419.06
2023-01-10T18:03:15.054Z,92428.09
2023-01-10T18:05:50.757Z,92428.16
2023-01-10T18:08:19.228Z,92427.19
2023-01-10T18:10:47.529Z,92428.81
2023-01-10T18:13:17.846Z,92429.94
2023-01-10T18:15:48.177Z,92428.94
2023-01-10T18:18:16.919Z,92429.72
2023-01-10T18:20:45.299Z,92434.38
2023-01-10T18:23:21.208Z,92446.44
2023-01-10T18:26:03.820Z,92437.38
2023-01-10T18:28:41.041Z,92443.31
2023-01-10T18:31:17.299Z,92442.50
2023-01-10T18:33:46.793Z,92430.44
2023-01-10T18:36:19.861Z,92441.50
2023-01-10T18:38:48.444Z,92433.19
2023-01-10T18:41:17.009Z,92435.56
2023-01-10T18:43:44.943Z,92439.16
2023-01-10T18:46:21.150Z,92446.56
2023-01-10T18:48:51.624Z,92451.66
2023-01-10T18:51:19.526Z,92451.00
2023-01-10T18:53:47.779Z,92446.94
2023-01-10T18:56:16.218Z,92458.00
2023-01-10T18:58:44.337Z,92467.53
2023-01-10T19:01:20.631Z,92472.75
2023-01-10T19:03:50.289Z,92469.41
2023-01-10T19:06:20.066Z,92469.78
2023-01-10T19:08:47.868Z,92475.22
2023-01-10T19:11:16.877Z,92478.41
2023-01-10T19:13:46.092Z,92470.50
2023-01-10T19:16:13.914Z,92482.97
2023-01-10T19:18:41.787Z,92484.09
2023-01-10T19:21:15.607Z,92484.78
2023-01-10T19:23:45.707Z,92483.34
2023-01-10T19:26:14.168Z,92473.94
2023-01-10T19:28:42.813Z,92479.19
2023-01-10T19:31:15.446Z,92480.84
2023-01-10T19:33:44.258Z,92488.31
2023-01-10T19:36:12.330Z,92491.84
2023-01-10T19:38:39.743Z,92501.47
2023-01-10T19:41:07.518Z,92493.91
2023-01-10T19:43:37.273Z,92491.31
2023-01-10T19:46:09.721Z,92491.66
2023-01-10T19:48:38.568Z,92497.25
2023-01-10T19:51:08.098Z,92496.62
2023-01-10T19:53:37.200Z,92493.31
2023-01-10T19:56:07.516Z,92502.44
2023-01-10T19:58:36.069Z,92503.25
2023-01-10T20:01:24.432Z,92499.19
2023-01-10T20:03:52.836Z,92501.59
2023-01-10T20:06:22.934Z,92503.69
2023-01-10T20:08:51.273Z,92496.34
2023-01-10T20:11:19.673Z,92512.28
2023-01-10T20:13:49.531Z,92516.00
2023-01-10T20:16:24.186Z,92524.44
2023-01-10T20:18:52.412Z,92527.47
2023-01-10T20:21:20.213Z,92529.31
2023-01-10T20:23:48.415Z,92530.69
2023-01-10T20:26:20.822Z,92527.50
2023-01-10T20:28:50.698Z,92531.13
2023-01-10T20:31:22.074Z,92529.31
2023-01-10T20:33:49.730Z,92531.50
2023-01-10T20:36:19.715Z,92549.03
2023-01-10T20:38:47.857Z,92545.91
2023-01-10T20:41:18.194Z,92548.50
2023-01-10T20:43:46.580Z,92546.13
2023-01-10T20:46:17.623Z,92552.91
2023-01-10T20:48:45.841Z,92544.56
2023-01-10T20:51:21.391Z,92547.69
2023-01-10T20:53:50.421Z,92553.69
2023-01-10T20:56:23.530Z,92555.25
2023-01-10T20:58:52.419Z,92553.28
2023-01-10T21:01:35.835Z,92564.63
2023-01-10T21:04:06.019Z,92562.84
2023-01-10T21:06:34.451Z,92566.41
2023-01-10T21:09:02.405Z,92575.94
2023-01-10T21:11:30.154Z,92570.78
2023-01-10T21:13:57.650Z,92574.31
2023-01-10T21:16:25.785Z,92580.50
2023-01-10T21:18:53.797Z,92583.50
2023-01-10T21:21:24.885Z,92584.47
2023-01-10T21:23:55.073Z,92580.28
2023-01-10T21:26:23.258Z,92587.84
2023-01-10T21:28:50.639Z,92595.03
2023-01-10T21:31:20.624Z,92599.38
2023-01-10T21:33:49.639Z,92596.00
2023-01-10T21:36:17.822Z,92594.22
2023-01-10T21:38:45.572Z,92600.94
2023-01-10T21:41:35.622Z,92594.03
2023-01-10T21:44:04.996Z,92604.34
2023-01-10T21:46:33.340Z,92595.22
2023-01-10T21:49:05.249Z,92604.91
2023-01-10T21:51:33.268Z,92602.47
2023-01-10T21:54:00.748Z,92618.78
2023-01-10T21:56:28.206Z,92627.16
2023-01-10T21:58:56.253Z,92637.47
2023-01-10T22:01:23.684Z,92638.69
2023-01-10T22:03:51.345Z,92641.03
2023-01-10T22:06:18.645Z,92642.59
2023-01-10T22:08:46.059Z,92646.75
2023-01-10T22:11:13.614Z,92648.13
2023-01-10T22:13:41.171Z,92655.09
2023-01-10T22:16:08.673Z,92660.66
2023-01-10T22:18:36.595Z,92665.62
2023-01-10T22:21:04.185Z,92655.91
2023-01-10T22:23:31.658Z,92667.63
2023-01-10T22:26:03.484Z,92667.81
2023-01-10T22:28:31.142Z,92671.78
2023-01-10T22:30:59.041Z,92666.03
2023-01-10T22:33:31.477Z,92666.38
2023-01-10T22:36:13.147Z,92671.16
2023-01-10T22:38:41.839Z,92672.53
2023-01-10T22:41:11.948Z,92669.75
2023-01-10T22:43:39.537Z,92669.37
2023-01-10T22:46:07.604Z,92666.75
2023-01-10T22:48:36.177Z,92664.38
2023-01-10T22:51:05.477Z,92664.38
2023-01-10T22:53:33.086Z,92668.16
2023-01-10T22:56:02.245Z,92671.66
2023-01-10T22:58:29.775Z,92678.31
2023-01-10T23:00:57.506Z,92679.50
2023-01-10T23:03:25.331Z,92675.72
2023-01-10T23:05:57.029Z,92681.88
2023-01-10T23:08:28.896Z,92679.31
2023-01-10T23:10:56.365Z,92686.50
2023-01-10T23:13:24.986Z,92685.88
2023-01-10T23:16:00.822Z,92695.25
2023-01-10T23:18:29.264Z,92697.22
2023-01-10T23:20:57.279Z,92692.44
2023-01-10T23:23:25.918Z,92687.50
2023-01-10T23:26:03.091Z,92684.72
2023-01-10T23:28:33.486Z,92680.91
2023-01-10T23:31:00.993Z,92678.72
2023-01-10T23:33:29.027Z,92682.47
2023-01-10T23:35:56.699Z,92685.44
2023-01-10T23:38:24.189Z,92688.81
2023-01-10T23:40:52.190Z,92694.19
2023-01-10T23:43:19.836Z,92700.19
2023-01-10T23:45:47.336Z,92704.19
2023-01-10T23:48:15.049Z,92704.97
2023-01-10T23:50:42.778Z,92700.78
2023-01-10T23:53:10.063Z,92704.38
2023-01-10T23:55:37.316Z,92702.56
2023-01-10T23:58:04.992Z,92703.78
